createdAt,value
2022-10-01T00:02:09.491Z,71.79
2022-10-01T00:04:39.720Z,71.48
2022-10-01T00:07:11.055Z,73.00
2022-10-01T00:09:39.908Z,74.10
2022-10-01T00:12:08.213Z,72.03
2022-10-01T00:14:38.578Z,71.91
2022-10-01T00:17:08.484Z,72.71
2022-10-01T00:19:36.947Z,71.94
2022-10-01T00:22:05.479Z,70.83
2022-10-01T00:24:33.863Z,71.01
2022-10-01T00:27:02.273Z,73.21
2022-10-01T00:29:31.885Z,73.85
2022-10-01T00:32:00.382Z,73.39
2022-10-01T00:34:30.193Z,71.15
2022-10-01T00:36:58.661Z,70.14
2022-10-01T00:39:27.006Z,70.19
2022-10-01T00:41:55.340Z,69.27
2022-10-01T00:44:32.314Z,69.67
2022-10-01T00:47:06.229Z,68.98
2022-10-01T00:49:39.236Z,69.65
2022-10-01T00:52:13.289Z,69.35
2022-10-01T00:54:45.680Z,68.82
2022-10-01T00:57:17.310Z,69.32
2022-10-01T00:59:46.952Z,70.29
2022-10-01T01:02:15.630Z,70.85
2022-10-01T01:04:45.420Z,72.07
2022-10-01T01:07:14.231Z,72.97
2022-10-01T01:09:45.155Z,71.11
2022-10-01T01:12:27.661Z,69.50
2022-10-01T01:15:07.420Z,68.95
2022-10-01T01:17:43.719Z,67.65
2022-10-01T01:20:40.230Z,67.76
2022-10-01T01:23:29.539Z,67.81
2022-10-01T01:26:08.865Z,66.89
2022-10-01T01:28:42.111Z,68.83
2022-10-01T01:31:15.237Z,69.89
2022-10-01T01:33:47.154Z,69.83
2022-10-01T01:36:19.678Z,68.56
2022-10-01T01:38:54.892Z,70.32
2022-10-01T01:41:26.851Z,71.24
2022-10-01T01:44:01.187Z,69.94
2022-10-01T01:46:34.809Z,68.75
2022-10-01T01:49:05.455Z,68.57
2022-10-01T01:51:41.415Z,68.69
2022-10-01T01:54:10.160Z,68.57
2022-10-01T01:56:38.929Z,69.15
2022-10-01T01:59:08.609Z,66.99
2022-10-01T02:01:39.429Z,68.06
2022-10-01T02:04:11.001Z,69.13
2022-10-01T02:06:59.128Z,69.19
2022-10-01T02:09:31.740Z,69.21
2022-10-01T02:12:11.107Z,69.09
2022-10-01T02:14:54.404Z,68.99
2022-10-01T02:17:32.484Z,69.57
2022-10-01T02:20:10.185Z,69.78
2022-10-01T02:22:43.755Z,70.05
2022-10-01T02:25:15.306Z,70.22
2022-10-01T02:27:49.845Z,69.84
2022-10-01T02:30:20.060Z,70.16
2022-10-01T02:32:51.268Z,70.44
2022-10-01T02:35:26.938Z,70.57
2022-10-01T02:37:57.844Z,71.13
2022-10-01T02:40:28.702Z,71.07
2022-10-01T02:43:03.105Z,71.35
2022-10-01T02:45:37.997Z,71.02
2022-10-01T02:48:12.667Z,70.99
2022-10-01T02:50:47.285Z,70.13
2022-10-01T02:53:23.962Z,70.13
2022-10-01T02:55:54.134Z,70.49
2022-10-01T02:58:27.518Z,70.45
2022-10-01T03:01:04.901Z,70.98
2022-10-01T03:03:33.338Z,71.70
2022-10-01T03:06:07.900Z,71.00
2022-10-01T03:08:37.721Z,70.96
2022-10-01T03:11:08.683Z,71.30
2022-10-01T03:13:40.877Z,71.34
2022-10-01T03:16:13.404Z,71.71
2022-10-01T03:18:41.920Z,72.24
2022-10-01T03:21:10.676Z,71.94
2022-10-01T03:23:39.296Z,71.71
2022-10-01T03:26:07.945Z,71.61
2022-10-01T03:28:36.695Z,71.53
2022-10-01T03:31:11.362Z,71.56
2022-10-01T03:33:41.445Z,72.02
2022-10-01T03:36:10.158Z,71.92
2022-10-01T03:38:38.498Z,71.67
2022-10-01T03:41:07.459Z,72.84
2022-10-01T03:43:35.787Z,71.57
2022-10-01T03:46:06.140Z,72.38
2022-10-01T03:48:50.790Z,72.52
2022-10-01T03:51:20.927Z,72.78
2022-10-01T03:53:49.594Z,73.17
2022-10-01T03:56:18.979Z,73.29
2022-10-01T03:58:47.359Z,72.69
2022-10-01T04:01:15.856Z,72.25
2022-10-01T04:03:44.531Z,73.49
2022-10-01T04:06:14.899Z,73.46
2022-10-01T04:08:43.725Z,73.99
2022-10-01T04:11:12.502Z,72.60
2022-10-01T04:13:41.012Z,72.02
2022-10-01T04:16:12.477Z,72.41
2022-10-01T04:18:41.077Z,72.69
2022-10-01T04:21:15.476Z,72.77
2022-10-01T04:23:44.638Z,71.37
2022-10-01T04:26:15.448Z,71.66
2022-10-01T04:28:49.069Z,70.42
2022-10-01T04:31:26.658Z,70.78
2022-10-01T04:33:56.622Z,70.37
2022-10-01T04:36:38.726Z,71.06
2022-10-01T04:39:10.175Z,70.76
2022-10-01T04:41:41.729Z,73.02
2022-10-01T04:44:10.527Z,72.72
2022-10-01T04:46:51.398Z,71.41
2022-10-01T04:49:21.862Z,71.87
2022-10-01T04:51:51.833Z,71.86
2022-10-01T04:54:21.304Z,71.77
2022-10-01T04:56:49.750Z,71.19
2022-10-01T04:59:18.469Z,71.92
2022-10-01T05:01:46.914Z,69.85
2022-10-01T05:04:15.586Z,72.94
2022-10-01T05:06:47.541Z,75.14
2022-10-01T05:09:17.591Z,74.48
2022-10-01T05:11:47.545Z,75.60
2022-10-01T05:14:20.607Z,75.51
2022-10-01T05:16:49.204Z,74.47
2022-10-01T05:19:19.469Z,74.16
2022-10-01T05:21:50.599Z,74.25
2022-10-01T05:24:24.048Z,73.21
2022-10-01T05:26:56.394Z,73.50
2022-10-01T05:29:29.705Z,73.32
2022-10-01T05:32:03.595Z,72.48
2022-10-01T05:34:41.487Z,70.93
2022-10-01T05:37:12.177Z,70.02
2022-10-01T05:39:42.227Z,70.36
2022-10-01T05:42:10.667Z,69.83
2022-10-01T05:44:40.189Z,72.59
2022-10-01T05:47:08.841Z,71.55
2022-10-01T05:49:39.745Z,68.67
2022-10-01T05:52:10.175Z,69.88
2022-10-01T05:54:42.146Z,69.20
2022-10-01T05:57:12.696Z,69.74
2022-10-01T05:59:44.489Z,71.31
2022-10-01T06:02:13.165Z,71.76
2022-10-01T06:04:44.111Z,71.90
2022-10-01T06:07:12.565Z,71.10
2022-10-01T06:09:41.211Z,71.76
2022-10-01T06:12:15.411Z,72.29
2022-10-01T06:14:49.510Z,71.62
2022-10-01T06:17:20.894Z,70.87
2022-10-01T06:19:51.608Z,71.69
2022-10-01T06:22:20.148Z,72.08
2022-10-01T06:24:48.910Z,71.58
2022-10-01T06:27:19.043Z,72.26
2022-10-01T06:29:47.841Z,71.45
2022-10-01T06:32:19.945Z,71.49
2022-10-01T06:34:48.619Z,71.75
2022-10-01T06:37:17.706Z,71.38
2022-10-01T06:39:49.861Z,70.83
2022-10-01T06:42:22.763Z,71.65
2022-10-01T06:44:51.341Z,70.41
2022-10-01T06:47:19.833Z,69.10
2022-10-01T06:49:50.517Z,68.91
2022-10-01T06:52:36.345Z,69.93
2022-10-01T06:55:05.345Z,70.48
2022-10-01T06:57:34.939Z,68.69
2022-10-01T07:00:05.517Z,69.94
2022-10-01T07:02:34.314Z,71.38
2022-10-01T07:05:09.424Z,71.26
2022-10-01T07:07:39.820Z,70.83
2022-10-01T07:10:10.924Z,69.05
2022-10-01T07:12:43.229Z,69.23
2022-10-01T07:15:11.839Z,69.33
2022-10-01T07:17:46.145Z,70.66
2022-10-01T07:20:17.897Z,69.75
2022-10-01T07:22:54.010Z,69.06
2022-10-01T07:25:24.492Z,68.37
2022-10-01T07:28:16.813Z,69.26
2022-10-01T07:30:50.051Z,68.38
2022-10-01T07:33:20.188Z,71.30
2022-10-01T07:35:49.420Z,70.06
2022-10-01T07:38:18.360Z,68.35
2022-10-01T07:40:53.423Z,68.30
2022-10-01T07:43:23.885Z,68.92
2022-10-01T07:45:55.335Z,69.60
2022-10-01T07:48:23.988Z,69.20
2022-10-01T07:50:53.071Z,69.35
2022-10-01T07:53:21.480Z,67.24
2022-10-01T07:55:49.897Z,67.57
2022-10-01T07:58:18.906Z,65.13
2022-10-01T08:00:48.960Z,65.57
2022-10-01T08:03:17.683Z,64.16
2022-10-01T08:05:46.656Z,64.18
2022-10-01T08:08:14.773Z,62.89
2022-10-01T08:10:43.240Z,66.98
2022-10-01T08:13:15.527Z,67.00
2022-10-01T08:15:44.754Z,65.28
2022-10-01T08:18:15.268Z,63.69
2022-10-01T08:20:44.393Z,61.26
2022-10-01T08:23:14.875Z,60.78
2022-10-01T08:25:44.642Z,61.33
2022-10-01T08:28:13.369Z,63.10
2022-10-01T08:30:42.733Z,62.95
2022-10-01T08:33:13.112Z,64.10
2022-10-01T08:35:44.528Z,64.16
2022-10-01T08:38:14.211Z,64.13
2022-10-01T08:40:47.094Z,62.68
2022-10-01T08:43:30.031Z,64.54
2022-10-01T08:46:02.790Z,63.76
2022-10-01T08:48:39.892Z,64.38
2022-10-01T08:51:17.225Z,65.56
2022-10-01T08:53:49.679Z,64.37
2022-10-01T08:56:23.165Z,62.74
2022-10-01T08:58:59.227Z,62.10
2022-10-01T09:01:29.827Z,61.57
2022-10-01T09:03:59.779Z,64.75
2022-10-01T09:06:30.368Z,63.74
2022-10-01T09:09:12.011Z,66.23
2022-10-01T09:11:53.761Z,65.71
2022-10-01T09:14:38.069Z,65.54
2022-10-01T09:17:14.000Z,64.73
2022-10-01T09:19:59.280Z,64.98
2022-10-01T09:22:40.558Z,67.18
2022-10-01T09:25:37.079Z,64.33
2022-10-01T09:28:15.358Z,65.78
2022-10-01T09:30:47.512Z,63.28
2022-10-01T09:33:18.742Z,61.26
2022-10-01T09:36:15.378Z,62.68
2022-10-01T09:38:51.302Z,62.72
2022-10-01T09:41:20.743Z,63.06
2022-10-01T09:43:49.183Z,63.46
2022-10-01T09:46:20.232Z,63.12
2022-10-01T09:48:57.730Z,63.08
2022-10-01T09:51:34.798Z,63.55
2022-10-01T09:54:15.363Z,64.29
2022-10-01T09:56:48.180Z,63.49
2022-10-01T09:59:22.698Z,64.99
2022-10-01T10:01:56.125Z,65.32
2022-10-01T10:04:24.810Z,63.73
2022-10-01T10:07:00.845Z,61.57
2022-10-01T10:09:33.397Z,63.37
2022-10-01T10:12:07.143Z,63.72
2022-10-01T10:14:38.078Z,64.42
2022-10-01T10:17:09.904Z,64.66
2022-10-01T10:19:39.480Z,65.21
2022-10-01T10:22:13.538Z,65.34
2022-10-01T10:24:43.449Z,63.12
2022-10-01T10:27:26.918Z,63.07
2022-10-01T10:30:08.907Z,62.04
2022-10-01T10:32:37.947Z,64.78
2022-10-01T10:35:13.458Z,63.31
2022-10-01T10:37:48.617Z,65.32
2022-10-01T10:40:25.725Z,64.79
2022-10-01T10:42:59.244Z,65.78
2022-10-01T10:45:33.892Z,65.78
2022-10-01T10:48:06.069Z,66.87
2022-10-01T10:50:38.607Z,67.68
2022-10-01T10:53:22.478Z,66.98
2022-10-01T10:56:01.335Z,65.56
2022-10-01T10:58:33.453Z,66.00
2022-10-01T11:01:06.290Z,65.78
2022-10-01T11:03:39.052Z,65.32
2022-10-01T11:06:13.099Z,64.51
2022-10-01T11:08:42.798Z,63.94
2022-10-01T11:11:23.760Z,64.00
2022-10-01T11:14:08.555Z,63.70
2022-10-01T11:16:50.212Z,66.08
2022-10-01T11:19:38.538Z,70.22
2022-10-01T11:22:26.711Z,72.60
2022-10-01T11:25:32.316Z,72.04
2022-10-01T11:28:17.001Z,72.58
2022-10-01T11:30:57.139Z,70.20
2022-10-01T11:33:34.490Z,70.32
2022-10-01T11:36:08.729Z,69.22
2022-10-01T11:38:49.380Z,70.39
2022-10-01T11:41:27.097Z,70.63
2022-10-01T11:44:03.305Z,70.06
2022-10-01T11:46:46.954Z,70.41
2022-10-01T11:49:30.352Z,72.52
2022-10-01T11:52:08.873Z,72.60
2022-10-01T11:54:43.274Z,71.98
2022-10-01T11:57:34.349Z,69.31
2022-10-01T12:00:09.734Z,69.11
2022-10-01T12:02:49.600Z,67.77
2022-10-01T12:05:22.938Z,65.51
2022-10-01T12:07:58.537Z,63.07
2022-10-01T12:10:39.353Z,65.44
2022-10-01T12:13:16.774Z,62.09
2022-10-01T12:15:51.414Z,59.09
2022-10-01T12:18:25.403Z,60.82
2022-10-01T12:20:57.350Z,60.65
2022-10-01T12:23:30.344Z,61.54
2022-10-01T12:26:08.930Z,61.63
2022-10-01T12:28:44.938Z,61.64
2022-10-01T12:31:23.601Z,62.76
2022-10-01T12:34:07.901Z,67.47
2022-10-01T12:36:49.011Z,65.68
2022-10-01T12:39:32.207Z,67.69
2022-10-01T12:42:14.878Z,69.26
2022-10-01T12:44:59.940Z,68.69
2022-10-01T12:47:40.404Z,69.03
2022-10-01T12:50:23.665Z,68.98
2022-10-01T12:53:06.803Z,68.53
2022-10-01T12:55:54.944Z,68.93
2022-10-01T12:58:44.989Z,69.21
2022-10-01T13:01:31.924Z,69.21
2022-10-01T13:04:24.983Z,69.01
2022-10-01T13:07:08.038Z,69.81
2022-10-01T13:09:48.907Z,68.23
2022-10-01T13:12:25.960Z,64.89
2022-10-01T13:14:56.341Z,67.30
2022-10-01T13:17:34.476Z,66.59
2022-10-01T13:20:11.981Z,66.46
2022-10-01T13:22:47.323Z,66.01
2022-10-01T13:25:31.833Z,68.28
2022-10-01T13:28:12.122Z,69.55
2022-10-01T13:30:59.243Z,69.10
2022-10-01T13:33:29.606Z,68.87
2022-10-01T13:36:01.521Z,70.73
2022-10-01T13:38:40.165Z,70.56
2022-10-01T13:41:17.968Z,68.60
2022-10-01T13:44:00.893Z,70.04
2022-10-01T13:46:34.295Z,68.90
2022-10-01T13:49:08.636Z,69.69
2022-10-01T13:51:39.351Z,69.72
2022-10-01T13:54:25.200Z,69.83
2022-10-01T13:56:53.909Z,71.00
2022-10-01T13:59:34.044Z,69.61
2022-10-01T14:02:03.274Z,71.22
2022-10-01T14:04:38.975Z,71.87
2022-10-01T14:07:19.208Z,72.33
2022-10-01T14:09:52.415Z,71.79
2022-10-01T14:12:44.068Z,70.21
2022-10-01T14:15:54.848Z,70.31
2022-10-01T14:18:27.143Z,71.02
2022-10-01T14:21:03.517Z,72.89
2022-10-01T14:23:40.585Z,74.16
2022-10-01T14:26:23.184Z,76.37
2022-10-01T14:29:07.002Z,77.49
2022-10-01T14:31:50.782Z,77.01
2022-10-01T14:34:40.157Z,76.41
2022-10-01T14:37:11.662Z,75.52
2022-10-01T14:39:45.073Z,75.64
2022-10-01T14:42:17.829Z,75.94
2022-10-01T14:44:50.495Z,76.52
2022-10-01T14:47:22.168Z,76.05
2022-10-01T14:49:51.932Z,76.82
2022-10-01T14:52:24.232Z,77.32
2022-10-01T14:55:00.183Z,78.11
2022-10-01T14:57:33.337Z,76.76
2022-10-01T15:00:11.547Z,76.12
2022-10-01T15:02:46.476Z,76.31
2022-10-01T15:05:23.302Z,76.30
2022-10-01T15:07:52.081Z,75.51
2022-10-01T15:10:26.935Z,75.05
2022-10-01T15:12:57.678Z,73.83
2022-10-01T15:15:30.954Z,74.34
2022-10-01T15:17:59.635Z,74.24
2022-10-01T15:20:28.839Z,73.38
2022-10-01T15:23:01.500Z,73.35
2022-10-01T15:25:33.506Z,74.96
2022-10-01T15:28:02.469Z,75.29
2022-10-01T15:30:31.104Z,74.57
2022-10-01T15:32:59.675Z,75.07
2022-10-01T15:35:29.349Z,73.99
2022-10-01T15:38:00.709Z,74.22
2022-10-01T15:40:34.708Z,74.17
2022-10-01T15:43:26.388Z,73.79
2022-10-01T15:46:12.920Z,73.97
2022-10-01T15:48:44.361Z,73.55
2022-10-01T15:51:21.037Z,72.44
2022-10-01T15:53:49.793Z,71.84
2022-10-01T15:56:25.154Z,70.15
2022-10-01T15:58:57.000Z,71.25
2022-10-01T16:01:28.397Z,71.38
2022-10-01T16:04:03.767Z,71.88
2022-10-01T16:06:41.529Z,71.56
2022-10-01T16:09:16.101Z,72.58
2022-10-01T16:11:57.680Z,72.80
2022-10-01T16:14:32.509Z,71.85
2022-10-01T16:17:33.167Z,70.86
2022-10-01T16:20:39.943Z,69.85
2022-10-01T16:23:36.562Z,69.12
2022-10-01T16:26:39.108Z,69.94
2022-10-01T16:29:36.694Z,71.43
2022-10-01T16:32:12.826Z,72.43
2022-10-01T16:34:43.113Z,73.57
2022-10-01T16:37:13.213Z,73.99
2022-10-01T16:39:41.869Z,73.76
2022-10-01T16:42:23.842Z,73.35
2022-10-01T16:44:54.519Z,72.75
2022-10-01T16:47:25.950Z,71.82
2022-10-01T16:49:54.512Z,72.51
2022-10-01T16:52:23.019Z,71.50
2022-10-01T16:54:54.747Z,71.78
2022-10-01T16:57:23.471Z,72.21
2022-10-01T16:59:55.801Z,71.63
2022-10-01T17:02:24.480Z,71.77
2022-10-01T17:04:54.870Z,71.69
2022-10-01T17:07:23.397Z,72.16
2022-10-01T17:09:51.957Z,72.08
2022-10-01T17:12:20.599Z,73.07
2022-10-01T17:14:49.027Z,72.80
2022-10-01T17:17:19.165Z,72.52
2022-10-01T17:19:48.277Z,72.46
2022-10-01T17:22:16.783Z,72.11
2022-10-01T17:24:45.491Z,72.99
2022-10-01T17:27:13.948Z,72.43
2022-10-01T17:29:45.340Z,72.65
2022-10-01T17:32:19.057Z,72.91
2022-10-01T17:34:47.858Z,74.40
2022-10-01T17:37:16.800Z,74.96
2022-10-01T17:39:45.396Z,74.07
2022-10-01T17:42:15.305Z,75.35
2022-10-01T17:44:44.004Z,74.69
2022-10-01T17:47:12.693Z,74.59
2022-10-01T17:49:50.808Z,74.16
2022-10-01T17:52:21.133Z,73.82
2022-10-01T17:54:49.847Z,75.21
2022-10-01T17:57:18.409Z,73.58
2022-10-01T17:59:47.083Z,74.57
2022-10-01T18:02:39.709Z,74.05
2022-10-01T18:05:09.576Z,73.16
2022-10-01T18:07:39.603Z,74.45
2022-10-01T18:10:11.048Z,74.04
2022-10-01T18:12:39.860Z,74.10
2022-10-01T18:15:08.862Z,72.05
2022-10-01T18:17:43.018Z,72.96
2022-10-01T18:20:13.632Z,73.51
2022-10-01T18:22:42.142Z,73.99
2022-10-01T18:25:10.969Z,74.74
2022-10-01T18:27:39.668Z,74.65
2022-10-01T18:30:09.755Z,73.68
2022-10-01T18:32:43.732Z,73.70
2022-10-01T18:35:21.660Z,74.01
2022-10-01T18:37:53.892Z,73.93
2022-10-01T18:40:24.971Z,74.08
2022-10-01T18:43:00.622Z,73.82
2022-10-01T18:45:50.906Z,73.83
2022-10-01T18:48:52.269Z,73.79
2022-10-01T18:51:35.284Z,73.32
2022-10-01T18:54:48.731Z,73.19
2022-10-01T18:57:31.939Z,72.93
2022-10-01T19:00:21.039Z,73.13
2022-10-01T19:03:11.247Z,73.65
2022-10-01T19:05:56.943Z,73.76
2022-10-01T19:08:38.769Z,75.37
2022-10-01T19:11:18.104Z,75.85
2022-10-01T19:13:55.429Z,76.49
2022-10-01T19:16:39.844Z,77.25
2022-10-01T19:19:28.784Z,76.29
2022-10-01T19:22:00.779Z,75.05
2022-10-01T19:24:58.004Z,77.67
2022-10-01T19:27:49.511Z,77.15
2022-10-01T19:30:20.476Z,78.05
2022-10-01T19:32:55.165Z,77.47
2022-10-01T19:35:28.160Z,77.26
2022-10-01T19:38:02.695Z,77.68
2022-10-01T19:40:38.194Z,79.51
2022-10-01T19:43:17.247Z,81.09
2022-10-01T19:45:51.481Z,79.33
2022-10-01T19:48:29.241Z,82.38
2022-10-01T19:51:03.787Z,80.76
2022-10-01T19:53:34.795Z,79.62
2022-10-01T19:56:05.805Z,79.77
2022-10-01T19:58:34.597Z,79.83
2022-10-01T20:01:04.188Z,78.34
2022-10-01T20:03:39.347Z,78.53
2022-10-01T20:06:16.849Z,78.41
2022-10-01T20:08:52.844Z,77.01
2022-10-01T20:11:29.179Z,77.48
2022-10-01T20:14:34.999Z,76.58
2022-10-01T20:17:23.764Z,76.74
2022-10-01T20:19:56.992Z,76.48
2022-10-01T20:22:36.102Z,77.79
2022-10-01T20:25:12.998Z,76.95
2022-10-01T20:27:55.046Z,77.44
2022-10-01T20:30:24.013Z,76.99
2022-10-01T20:32:54.750Z,76.41
2022-10-01T20:35:31.265Z,78.32
2022-10-01T20:38:07.004Z,77.62
2022-10-01T20:40:40.760Z,77.07
2022-10-01T20:43:17.916Z,77.93
2022-10-01T20:45:49.786Z,77.95
2022-10-01T20:48:23.951Z,77.88
2022-10-01T20:50:55.541Z,77.77
2022-10-01T20:53:31.392Z,77.61
2022-10-01T20:56:06.163Z,78.01
2022-10-01T20:58:44.658Z,77.96
2022-10-01T21:01:20.733Z,78.28
2022-10-01T21:03:55.020Z,79.07
2022-10-01T21:06:30.245Z,79.29
2022-10-01T21:09:01.928Z,77.24
2022-10-01T21:11:34.431Z,77.64
2022-10-01T21:14:15.696Z,76.93
2022-10-01T21:17:08.988Z,76.25
2022-10-01T21:19:50.118Z,76.62
2022-10-01T21:22:34.539Z,77.00
2022-10-01T21:25:11.195Z,79.86
2022-10-01T21:28:06.412Z,80.09
2022-10-01T21:30:57.105Z,80.86
2022-10-01T21:33:28.331Z,80.21
2022-10-01T21:36:03.183Z,80.18
2022-10-01T21:38:39.301Z,77.62
2022-10-01T21:41:21.422Z,82.12
2022-10-01T21:44:11.426Z,78.67
2022-10-01T21:46:50.509Z,79.44
2022-10-01T21:49:24.534Z,76.32
2022-10-01T21:52:08.224Z,77.74
2022-10-01T21:55:31.976Z,79.34
2022-10-01T21:58:16.371Z,79.19
2022-10-01T22:00:52.699Z,77.25
2022-10-01T22:03:31.897Z,79.93
2022-10-01T22:06:09.255Z,77.66
2022-10-01T22:08:49.631Z,77.93
2022-10-01T22:11:21.558Z,77.00
2022-10-01T22:13:53.800Z,78.14
2022-10-01T22:16:26.461Z,78.16
2022-10-01T22:18:58.844Z,77.63
2022-10-01T22:21:34.818Z,78.32
2022-10-01T22:24:07.657Z,78.71
2022-10-01T22:26:41.191Z,77.90
2022-10-01T22:29:14.809Z,77.43
2022-10-01T22:31:47.294Z,76.71
2022-10-01T22:34:22.627Z,76.21
2022-10-01T22:36:57.800Z,77.66
2022-10-01T22:39:30.116Z,78.88
2022-10-01T22:42:05.359Z,78.42
2022-10-01T22:44:33.846Z,77.71
2022-10-01T22:47:23.609Z,77.70
2022-10-01T22:50:14.200Z,77.80
2022-10-01T22:52:51.667Z,75.58
2022-10-01T22:55:29.935Z,77.12
2022-10-01T22:58:26.152Z,77.56
2022-10-01T23:01:07.435Z,78.19
2022-10-01T23:03:50.734Z,78.26
2022-10-01T23:06:28.352Z,76.89
2022-10-01T23:09:04.675Z,75.19
2022-10-01T23:11:42.538Z,75.13
2022-10-01T23:14:23.531Z,75.94
2022-10-01T23:16:59.301Z,76.90
2022-10-01T23:19:40.408Z,77.07
2022-10-01T23:22:23.013Z,77.23
2022-10-01T23:25:04.348Z,76.94
2022-10-01T23:27:42.366Z,78.19
2022-10-01T23:30:14.449Z,77.32
2022-10-01T23:33:02.243Z,77.28
2022-10-01T23:35:41.688Z,76.89
2022-10-01T23:38:25.772Z,76.53
2022-10-01T23:40:55.807Z,76.19
2022-10-01T23:43:30.250Z,76.33
2022-10-01T23:46:03.806Z,74.65
2022-10-01T23:48:39.452Z,74.14
2022-10-01T23:51:13.513Z,74.29
2022-10-01T23:53:49.584Z,73.15
2022-10-01T23:56:39.984Z,72.51
2022-10-01T23:59:16.556Z,71.97
